Athens, Ohio
Current Conditions -  °F | °C
As of 11:35 AM on Tuesday 21 Oct 2014 (Local Time) from KUNI Reporting Station
Overcast Overcast  
Wind Chill: 10°   Ceiling: 1400
Heat Index: 10°   Visibility: 10mi
Dew Point:   Wind: 3mph
Humidity: 89%   Direction: 310°NW
Pressure: 29.96"   Gusts: NA
Location:  39.33°N, 82.1°W
Report Text: KUNI 211535Z AUTO 31003KT 10SM BKN014 BKN023 OVC050 10/08 A2996 RMK AO2 T01000083
Loading
Personal Weather Stations






























Interactive Weather Map
Tropical Storm Tracking
New forecast layout! Learn more

10-Day Weather Forecast

Advertisements
Track Severe Weather on mobile